地図

経路データ

SID SEASON NUMBER BASIN SUBBASIN NAME ISO_TIME NATURE LAT LON WMO_WIND WMO_PRES WMO_AGENCY TRACK_TYPE DIST2LAND LANDFALL IFLAG USA_AGENCY USA_ATCF_ID USA_LAT USA_LON USA_RECORD USA_STATUS USA_WIND USA_PRES USA_SSHS USA_R34_NE USA_R34_SE USA_R34_SW USA_R34_NW USA_R50_NE USA_R50_SE USA_R50_SW USA_R50_NW USA_R64_NE USA_R64_SE USA_R64_SW USA_R64_NW USA_POCI USA_ROCI USA_RMW USA_EYE TOKYO_LAT TOKYO_LON TOKYO_GRADE TOKYO_WIND TOKYO_PRES TOKYO_R50_DIR TOKYO_R50_LONG TOKYO_R50_SHORT TOKYO_R30_DIR TOKYO_R30_LONG TOKYO_R30_SHORT TOKYO_LAND CMA_LAT CMA_LON CMA_CAT CMA_WIND CMA_PRES HKO_LAT HKO_LON HKO_CAT HKO_WIND HKO_PRES NEWDELHI_LAT NEWDELHI_LON NEWDELHI_GRADE NEWDELHI_WIND NEWDELHI_PRES NEWDELHI_CI NEWDELHI_DP NEWDELHI_POCI REUNION_LAT REUNION_LON REUNION_TYPE REUNION_WIND REUNION_PRES REUNION_TNUM REUNION_CI REUNION_RMW REUNION_R34_NE REUNION_R34_SE REUNION_R34_SW REUNION_R34_NW REUNION_R50_NE REUNION_R50_SE REUNION_R50_SW REUNION_R50_NW REUNION_R64_NE REUNION_R64_SE REUNION_R64_SW REUNION_R64_NW BOM_LAT BOM_LON BOM_TYPE BOM_WIND BOM_PRES BOM_TNUM BOM_CI BOM_RMW BOM_R34_NE BOM_R34_SE BOM_R34_SW BOM_R34_NW BOM_R50_NE BOM_R50_SE BOM_R50_SW BOM_R50_NW BOM_R64_NE BOM_R64_SE BOM_R64_SW BOM_R64_NW BOM_ROCI BOM_POCI BOM_EYE BOM_POS_METHOD BOM_PRES_METHOD NADI_LAT NADI_LON NADI_CAT NADI_WIND NADI_PRES WELLINGTON_LAT WELLINGTON_LON WELLINGTON_WIND WELLINGTON_PRES DS824_LAT DS824_LON DS824_STAGE DS824_WIND DS824_PRES TD9636_LAT TD9636_LON TD9636_STAGE TD9636_WIND TD9636_PRES TD9635_LAT TD9635_LON TD9635_WIND TD9635_PRES TD9635_ROCI NEUMANN_LAT NEUMANN_LON NEUMANN_CLASS NEUMANN_WIND NEUMANN_PRES MLC_LAT MLC_LON MLC_CLASS MLC_WIND MLC_PRES USA_GUST BOM_GUST BOM_GUST_PER REUNION_GUST REUNION_GUST_PER USA_SEAHGT USA_SEARAD_NE USA_SEARAD_SE USA_SEARAD_SW USA_SEARAD_NW STORM_SPEED STORM_DIR
1986008S11061 1986 6 SI MM NOT_NAMED 1986-01-08 06:00:00 NR -11.3000 61.2000 spur-merge 1053 993 __________O___ -1 -11.3000 61.2000 1 11 197
1986008S11061 1986 6 SI MM NOT_NAMED 1986-01-08 09:00:00 NR -11.8311 61.0338 spur-merge 993 937 __________P___ -1 -11.8311 61.0338 1 11 198
1986008S11061 1986 6 SI MM NOT_NAMED 1986-01-08 12:00:00 NR -12.3697 60.8439 spur-merge 923 863 __________P___ -1 -12.3697 60.8439 1 12 201
1986008S11061 1986 6 SI MM NOT_NAMED 1986-01-08 15:00:00 NR -12.9235 60.6072 spur-merge 863 788 __________P___ -1 -12.9235 60.6072 1 13 205
1986008S11061 1986 6 SI MM NOT_NAMED 1986-01-08 18:00:00 NR -13.5000 60.3000 spur-merge 788 710 __________O___ -1 -13.5000 60.3000 1 14 210
1986008S11061 1986 6 SI MM NOT_NAMED 1986-01-08 21:00:00 NR -14.0976 59.9126 spur-merge 710 644 __________P___ -1 -14.0976 59.9126 1 14 214
1986008S11061 1986 6 SI MM NOT_NAMED 1986-01-09 00:00:00 NR -14.6782 59.4920 spur-merge 633 567 __________P___ -1 -14.6782 59.4920 1 14 216
1986008S11061 1986 6 SI MM NOT_NAMED 1986-01-09 03:00:00 NR -15.1946 59.1001 spur-merge 567 516 __________P___ -1 -15.1946 59.1001 1 11 216
1986008S11061 1986 6 SI MM NOT_NAMED 1986-01-09 06:00:00 NR -15.6000 58.8000 spur-merge 516 492 __________O___ -1 -15.6000 58.8000 1 8 213
1986008S11061 1986 6 SI MM NOT_NAMED 1986-01-09 09:00:00 NR -15.8355 58.6732 spur-merge 492 468 __________P___ -1 -15.8355 58.6732 1 4 202
1986008S11061 1986 6 SI MM NOT_NAMED 1986-01-09 12:00:00 NR -15.9620 58.6437 spur-merge 468 468 __________P___ -1 -15.9620 58.6437 1 2 185
1986008S11061 1986 6 SI MM NOT_NAMED 1986-01-09 15:00:00 NR -16.0325 58.6674 spur-merge 470 459 __________P___ -1 -16.0325 58.6674 1 1 159
1986008S11061 1986 6 SI MM NOT_NAMED 1986-01-09 18:00:00 NR -16.1000 58.7000 spur-merge 459 440 __________O___ -1 -16.1000 58.7000 1 3 160
1986008S11061 1986 6 SI MM NOT_NAMED 1986-01-09 21:00:00 NR -16.2707 58.7602 spur-merge 440 429 __________P___ -1 -16.2707 58.7602 1 4 163
1986008S11061 1986 6 SI MM NOT_NAMED 1986-01-10 00:00:00 NR -16.4440 58.8074 spur-merge 429 408 __________P___ -1 -16.4440 58.8074 1 3 0
1986008S11061 1986 6 SI MM NOT_NAMED 1986-01-10 03:00:00 NR -16.5953 58.7759 spur-merge 408 392 __________P___ -1 -16.5953 58.7759 1 3 218
1986008S11061 1986 6 SI MM NOT_NAMED 1986-01-10 06:00:00 NR -16.7000 58.6000 spur-merge 392 372 __________O___ -1 -16.7000 58.6000 1 6 254
1986008S11061 1986 6 SI MM NOT_NAMED 1986-01-10 09:00:00 NR -16.7715 58.1526 spur-merge 372 369 __________P___ -1 -16.7400 58.2335 1 10 265
1986008S11061 1986 6 SI MM NOT_NAMED 1986-01-10 12:00:00 NR -16.7873 57.5679 spur-merge 369 369 __________P___ -1 -16.7253 57.7094 1 12 272
1986008S11061 1986 6 SI MM NOT_NAMED 1986-01-10 15:00:00 NR -16.7341 56.9493 spur-merge 385 385 __________P___ -1 -16.6728 57.0807 1 11 280
1986008S11061 1986 6 SI MM NOT_NAMED 1986-01-10 18:00:00 NR -16.6000 56.4000 spur-merge 408 __________O___ -1 -16.6000 56.4000 1 11 284

IBTrACS Databaseについて

本データベースは、米国NOAAが公開する1842年以降の世界の熱帯低気圧のベストトラックデータアーカイブInternational Best Track Archive for Climate Stewardship (IBTrACS)を、ウェブで閲覧しやすい形式に変換したものです。

最終更新日:2021-10-21